الصفحة الرئيسية
METAR-TAF:

METAR-TAF

مطار :

مطار الوجه المحلي

الوجه, السعودية

دائرة عرض: 26-12N, خط طول: 036-28E, ارتفاع: 20 متر

مراقبة الطقس الحالي

تاريخ ووقت الإصدار 1ساعة و 3 دقيقة قبل الساعة 10:00UTC
ريح 12 عقدة من الشمال الغربي
درجة الحرارة 24°درجة مئوية
الرطوبة 47%
ضغط 1015 hPa
الرؤية 10 كم أو أكثر
الغيوم لا تقل 1500 م ولا وجود لمزنة ركامية السحاب الأسود

METAR: OEWJ 221000Z 32012KT CAVOK 24/12 Q1015 NOSIG

زمن: 14:03 (11:03 UTC)

توقعات

تاريخ ووقت الإصدار 12ساعات و 3 دقيقة قبل الساعة 23:00UTC
التوقعات صالحة من22 الساعة 00 UTC إلى 23 الساعة 06 UTC
ريح 6 عقدة من الشمال/الشمال الشرقي
الرؤية 10 كم أو أكثر
الغيوم لا تقل 1500 م ولا وجود لمزنة ركامية السحاب الأسود
مؤقت
من 22 الساعة 00 UTC إلى 22 الساعة 06 UTC
الرؤية: 4000 متر
غيوم قليلة على ارتفاع 1000 قدم
غشاء
أصبح
من 22 الساعة 06 UTC إلى 22 الساعة 08 UTC
ريح 14 عقدة من الشمال/الشمال الغربي

TAF: OEWJ 212300Z 2200/2306 02006KT CAVOK TEMPO 2200/2206 4000 BR FEW010 BECMG 2206/2208 34014KT

أرصاد الطقس والتوقعات من أكثر من 4000 مطار (تقارير الطقس للمطار METAR والتنبؤ بالطقس بالمطارTAF).

المحطات المتاحة هي النقط الصفراء والحمراء على الخريطة.

حرك المؤشر فوق النقطة لمعرفة اسم المحطة.

ثم انقر لمعرفة أرصاد وتوقعات الطقس.

لتغيير الخارطة: اضغط على الأزرار الخضراء مع رمز الصليب الأسود للتكبير. على الزر الأخضر مع شرطة للتصغير، أو على الأسهم الخضراء للخرائط المجاورة.


METAR-TAF: